sensor_id;sensor_type;location;lat;lon;timestamp;P1;durP1;ratioP1;P2;durP2;ratioP2
4971;SDS011;2501;51.214;6.768;2023-03-01T00:02:03;8.85;;;5.85;;
4971;SDS011;2501;51.214;6.768;2023-03-01T00:04:31;10.27;;;6.07;;
4971;SDS011;2501;51.214;6.768;2023-03-01T00:07:00;8.45;;;6.40;;
4971;SDS011;2501;51.214;6.768;2023-03-01T00:09:29;6.10;;;5.30;;
4971;SDS011;2501;51.214;6.768;2023-03-01T00:11:57;11.70;;;6.00;;
4971;SDS011;2501;51.214;6.768;2023-03-01T00:14:26;10.40;;;6.25;;
4971;SDS011;2501;51.214;6.768;2023-03-01T00:16:57;11.80;;;6.20;;
4971;SDS011;2501;51.214;6.768;2023-03-01T00:19:25;9.20;;;6.07;;
4971;SDS011;2501;51.214;6.768;2023-03-01T00:21:53;10.75;;;6.15;;
4971;SDS011;2501;51.214;6.768;2023-03-01T00:24:22;9.85;;;6.05;;
4971;SDS011;2501;51.214;6.768;2023-03-01T00:26:52;8.87;;;6.40;;
4971;SDS011;2501;51.214;6.768;2023-03-01T00:29:21;9.93;;;6.20;;
4971;SDS011;2501;51.214;6.768;2023-03-01T00:31:49;8.73;;;6.63;;
4971;SDS011;2501;51.214;6.768;2023-03-01T00:34:20;9.83;;;6.50;;
4971;SDS011;2501;51.214;6.768;2023-03-01T00:36:48;10.80;;;6.30;;
4971;SDS011;2501;51.214;6.768;2023-03-01T00:39:17;8.20;;;6.50;;
4971;SDS011;2501;51.214;6.768;2023-03-01T00:41:45;11.30;;;6.97;;
4971;SDS011;2501;51.214;6.768;2023-03-01T00:44:14;6.53;;;5.93;;
4971;SDS011;2501;51.214;6.768;2023-03-01T00:46:43;8.75;;;6.65;;
4971;SDS011;2501;51.214;6.768;2023-03-01T00:49:11;11.75;;;6.93;;
4971;SDS011;2501;51.214;6.768;2023-03-01T00:51:42;10.85;;;6.90;;
4971;SDS011;2501;51.214;6.768;2023-03-01T00:54:10;9.38;;;6.00;;
4971;SDS011;2501;51.214;6.768;2023-03-01T00:56:39;12.77;;;6.80;;
4971;SDS011;2501;51.214;6.768;2023-03-01T00:59:07;7.15;;;6.45;;
4971;SDS011;2501;51.214;6.768;2023-03-01T01:01:36;12.20;;;6.53;;
4971;SDS011;2501;51.214;6.768;2023-03-01T01:04:05;8.50;;;6.80;;
4971;SDS011;2501;51.214;6.768;2023-03-01T01:06:36;9.55;;;7.10;;
4971;SDS011;2501;51.214;6.768;2023-03-01T01:09:10;12.52;;;7.10;;
4971;SDS011;2501;51.214;6.768;2023-03-01T01:11:42;8.90;;;7.07;;
4971;SDS011;2501;51.214;6.768;2023-03-01T01:14:12;12.00;;;6.30;;
4971;SDS011;2501;51.214;6.768;2023-03-01T01:16:41;12.85;;;6.90;;
4971;SDS011;2501;51.214;6.768;2023-03-01T01:19:09;10.77;;;7.38;;
4971;SDS011;2501;51.214;6.768;2023-03-01T01:21:38;14.60;;;7.50;;
4971;SDS011;2501;51.214;6.768;2023-03-01T01:24:11;10.15;;;7.00;;
4971;SDS011;2501;51.214;6.768;2023-03-01T01:26:40;9.90;;;7.03;;
4971;SDS011;2501;51.214;6.768;2023-03-01T01:29:09;8.95;;;7.25;;
4971;SDS011;2501;51.214;6.768;2023-03-01T01:31:38;11.40;;;7.82;;
4971;SDS011;2501;51.214;6.768;2023-03-01T01:34:12;8.68;;;7.10;;
4971;SDS011;2501;51.214;6.768;2023-03-01T01:36:42;8.60;;;6.90;;
4971;SDS011;2501;51.214;6.768;2023-03-01T01:39:14;8.43;;;6.70;;
4971;SDS011;2501;51.214;6.768;2023-03-01T01:41:43;10.02;;;7.50;;
4971;SDS011;2501;51.214;6.768;2023-03-01T01:44:15;7.55;;;6.80;;
4971;SDS011;2501;51.214;6.768;2023-03-01T01:46:47;10.43;;;7.20;;
4971;SDS011;2501;51.214;6.768;2023-03-01T01:49:26;8.52;;;6.80;;
4971;SDS011;2501;51.214;6.768;2023-03-01T01:52:04;9.88;;;7.25;;
4971;SDS011;2501;51.214;6.768;2023-03-01T01:54:44;9.47;;;7.50;;
4971;SDS011;2501;51.214;6.768;2023-03-01T01:57:20;9.25;;;6.95;;
4971;SDS011;2501;51.214;6.768;2023-03-01T01:59:53;8.70;;;7.17;;
4971;SDS011;2501;51.214;6.768;2023-03-01T02:02:24;8.55;;;7.10;;
4971;SDS011;2501;51.214;6.768;2023-03-01T02:04:58;13.05;;;8.63;;
4971;SDS011;2501;51.214;6.768;2023-03-01T02:07:35;12.10;;;7.68;;
4971;SDS011;2501;51.214;6.768;2023-03-01T02:10:10;14.68;;;8.20;;
4971;SDS011;2501;51.214;6.768;2023-03-01T02:12:38;15.43;;;7.38;;
4971;SDS011;2501;51.214;6.768;2023-03-01T02:15:08;11.55;;;7.50;;
4971;SDS011;2501;51.214;6.768;2023-03-01T02:17:37;9.43;;;7.80;;
4971;SDS011;2501;51.214;6.768;2023-03-01T02:20:07;16.13;;;7.90;;
4971;SDS011;2501;51.214;6.768;2023-03-01T02:22:44;16.50;;;8.38;;
4971;SDS011;2501;51.214;6.768;2023-03-01T02:25:23;14.07;;;8.30;;
4971;SDS011;2501;51.214;6.768;2023-03-01T02:27:56;11.60;;;8.30;;
4971;SDS011;2501;51.214;6.768;2023-03-01T02:30:35;15.32;;;8.65;;
4971;SDS011;2501;51.214;6.768;2023-03-01T02:33:24;11.10;;;8.45;;
4971;SDS011;2501;51.214;6.768;2023-03-01T02:35:51;13.68;;;8.55;;
4971;SDS011;2501;51.214;6.768;2023-03-01T02:38:21;10.68;;;8.57;;
4971;SDS011;2501;51.214;6.768;2023-03-01T02:40:51;16.17;;;9.38;;
4971;SDS011;2501;51.214;6.768;2023-03-01T02:43:20;12.80;;;8.40;;
4971;SDS011;2501;51.214;6.768;2023-03-01T02:45:57;16.53;;;8.60;;
4971;SDS011;2501;51.214;6.768;2023-03-01T02:48:26;11.00;;;8.02;;
4971;SDS011;2501;51.214;6.768;2023-03-01T02:51:01;13.43;;;8.75;;
4971;SDS011;2501;51.214;6.768;2023-03-01T02:53:34;13.40;;;7.97;;
4971;SDS011;2501;51.214;6.768;2023-03-01T02:56:09;12.00;;;8.50;;
4971;SDS011;2501;51.214;6.768;2023-03-01T02:58:38;10.60;;;7.85;;
4971;SDS011;2501;51.214;6.768;2023-03-01T03:01:15;10.32;;;7.72;;
4971;SDS011;2501;51.214;6.768;2023-03-01T03:03:44;13.07;;;8.13;;
4971;SDS011;2501;51.214;6.768;2023-03-01T03:06:12;12.77;;;8.40;;
4971;SDS011;2501;51.214;6.768;2023-03-01T03:08:41;14.30;;;7.90;;
4971;SDS011;2501;51.214;6.768;2023-03-01T03:11:09;24.33;;;8.60;;
4971;SDS011;2501;51.214;6.768;2023-03-01T03:13:38;14.32;;;8.07;;
4971;SDS011;2501;51.214;6.768;2023-03-01T03:16:13;14.05;;;8.70;;
4971;SDS011;2501;51.214;6.768;2023-03-01T03:18:44;12.80;;;8.95;;
4971;SDS011;2501;51.214;6.768;2023-03-01T03:21:13;11.45;;;8.38;;
4971;SDS011;2501;51.214;6.768;2023-03-01T03:23:43;13.52;;;8.93;;
4971;SDS011;2501;51.214;6.768;2023-03-01T03:26:11;13.50;;;8.68;;
4971;SDS011;2501;51.214;6.768;2023-03-01T03:28:40;14.95;;;9.18;;
4971;SDS011;2501;51.214;6.768;2023-03-01T03:31:08;11.65;;;9.07;;
4971;SDS011;2501;51.214;6.768;2023-03-01T03:33:39;12.70;;;8.73;;
4971;SDS011;2501;51.214;6.768;2023-03-01T03:36:08;14.77;;;9.55;;
4971;SDS011;2501;51.214;6.768;2023-03-01T03:38:37;15.97;;;8.60;;
4971;SDS011;2501;51.214;6.768;2023-03-01T03:41:06;16.30;;;9.13;;
4971;SDS011;2501;51.214;6.768;2023-03-01T03:43:36;16.23;;;9.55;;
4971;SDS011;2501;51.214;6.768;2023-03-01T03:46:07;13.68;;;9.20;;
4971;SDS011;2501;51.214;6.768;2023-03-01T03:48:37;13.43;;;9.07;;
4971;SDS011;2501;51.214;6.768;2023-03-01T03:51:10;15.70;;;9.20;;
4971;SDS011;2501;51.214;6.768;2023-03-01T03:53:39;13.27;;;9.35;;
4971;SDS011;2501;51.214;6.768;2023-03-01T03:56:08;12.75;;;10.00;;
4971;SDS011;2501;51.214;6.768;2023-03-01T03:58:37;14.90;;;9.70;;
4971;SDS011;2501;51.214;6.768;2023-03-01T04:01:06;13.98;;;9.73;;
4971;SDS011;2501;51.214;6.768;2023-03-01T04:03:34;11.15;;;9.15;;
4971;SDS011;2501;51.214;6.768;2023-03-01T04:06:05;12.95;;;9.05;;
4971;SDS011;2501;51.214;6.768;2023-03-01T04:08:34;16.08;;;9.68;;
4971;SDS011;2501;51.214;6.768;2023-03-01T04:11:03;12.73;;;9.35;;
4971;SDS011;2501;51.214;6.768;2023-03-01T04:13:44;12.88;;;9.30;;
4971;SDS011;2501;51.214;6.768;2023-03-01T04:16:13;14.68;;;10.43;;
4971;SDS011;2501;51.214;6.768;2023-03-01T04:18:41;12.50;;;9.37;;
4971;SDS011;2501;51.214;6.768;2023-03-01T04:21:12;14.25;;;9.98;;
4971;SDS011;2501;51.214;6.768;2023-03-01T04:23:41;13.20;;;8.93;;
4971;SDS011;2501;51.214;6.768;2023-03-01T04:26:10;16.73;;;9.50;;
4971;SDS011;2501;51.214;6.768;2023-03-01T04:28:39;12.77;;;9.82;;
4971;SDS011;2501;51.214;6.768;2023-03-01T04:31:11;15.98;;;10.15;;
4971;SDS011;2501;51.214;6.768;2023-03-01T04:33:43;13.40;;;9.95;;
4971;SDS011;2501;51.214;6.768;2023-03-01T04:36:16;12.98;;;9.20;;
4971;SDS011;2501;51.214;6.768;2023-03-01T04:38:45;12.00;;;8.98;;
4971;SDS011;2501;51.214;6.768;2023-03-01T04:41:15;14.60;;;9.90;;
4971;SDS011;2501;51.214;6.768;2023-03-01T04:43:45;12.02;;;9.25;;
4971;SDS011;2501;51.214;6.768;2023-03-01T04:46:14;10.85;;;8.70;;
4971;SDS011;2501;51.214;6.768;2023-03-01T04:48:44;14.55;;;9.73;;
4971;SDS011;2501;51.214;6.768;2023-03-01T04:51:12;17.75;;;9.70;;
4971;SDS011;2501;51.214;6.768;2023-03-01T04:53:44;15.30;;;10.00;;
4971;SDS011;2501;51.214;6.768;2023-03-01T04:56:13;11.85;;;9.90;;
4971;SDS011;2501;51.214;6.768;2023-03-01T04:58:43;15.25;;;10.63;;
4971;SDS011;2501;51.214;6.768;2023-03-01T05:01:12;16.90;;;10.00;;
4971;SDS011;2501;51.214;6.768;2023-03-01T05:03:43;13.38;;;9.60;;
4971;SDS011;2501;51.214;6.768;2023-03-01T05:06:12;13.20;;;9.93;;
4971;SDS011;2501;51.214;6.768;2023-03-01T05:08:44;17.92;;;10.60;;
4971;SDS011;2501;51.214;6.768;2023-03-01T05:11:13;14.85;;;9.70;;
4971;SDS011;2501;51.214;6.768;2023-03-01T05:13:41;16.10;;;10.38;;
4971;SDS011;2501;51.214;6.768;2023-03-01T05:16:10;13.45;;;10.13;;
4971;SDS011;2501;51.214;6.768;2023-03-01T05:18:39;13.68;;;10.05;;
4971;SDS011;2501;51.214;6.768;2023-03-01T05:21:09;18.10;;;10.53;;
4971;SDS011;2501;51.214;6.768;2023-03-01T05:23:43;17.85;;;10.40;;
4971;SDS011;2501;51.214;6.768;2023-03-01T05:26:12;15.73;;;9.90;;
4971;SDS011;2501;51.214;6.768;2023-03-01T05:28:42;16.55;;;10.57;;
4971;SDS011;2501;51.214;6.768;2023-03-01T05:31:10;17.58;;;10.45;;
4971;SDS011;2501;51.214;6.768;2023-03-01T05:33:39;12.80;;;9.90;;
4971;SDS011;2501;51.214;6.768;2023-03-01T05:36:09;16.10;;;10.70;;
4971;SDS011;2501;51.214;6.768;2023-03-01T05:38:38;14.90;;;9.90;;
4971;SDS011;2501;51.214;6.768;2023-03-01T05:41:12;18.33;;;10.23;;
4971;SDS011;2501;51.214;6.768;2023-03-01T05:43:42;17.20;;;11.00;;
4971;SDS011;2501;51.214;6.768;2023-03-01T05:46:10;19.77;;;10.73;;
4971;SDS011;2501;51.214;6.768;2023-03-01T05:48:40;17.58;;;10.60;;
4971;SDS011;2501;51.214;6.768;2023-03-01T05:51:08;13.23;;;9.45;;
4971;SDS011;2501;51.214;6.768;2023-03-01T05:53:37;15.27;;;11.13;;
4971;SDS011;2501;51.214;6.768;2023-03-01T05:56:05;18.08;;;10.23;;
4971;SDS011;2501;51.214;6.768;2023-03-01T05:58:36;18.88;;;10.30;;
4971;SDS011;2501;51.214;6.768;2023-03-01T06:01:10;14.93;;;9.17;;
4971;SDS011;2501;51.214;6.768;2023-03-01T06:03:40;14.57;;;9.60;;
4971;SDS011;2501;51.214;6.768;2023-03-01T06:06:08;15.45;;;10.82;;
4971;SDS011;2501;51.214;6.768;2023-03-01T06:08:37;15.90;;;9.82;;
4971;SDS011;2501;51.214;6.768;2023-03-01T06:11:05;14.80;;;9.77;;
4971;SDS011;2501;51.214;6.768;2023-03-01T06:13:33;17.77;;;11.10;;
4971;SDS011;2501;51.214;6.768;2023-03-01T06:16:05;17.13;;;9.98;;
4971;SDS011;2501;51.214;6.768;2023-03-01T06:18:34;17.73;;;10.90;;
4971;SDS011;2501;51.214;6.768;2023-03-01T06:21:03;15.70;;;10.47;;
4971;SDS011;2501;51.214;6.768;2023-03-01T06:23:32;17.85;;;10.60;;
4971;SDS011;2501;51.214;6.768;2023-03-01T06:26:04;15.47;;;9.83;;
4971;SDS011;2501;51.214;6.768;2023-03-01T06:28:33;19.77;;;10.77;;
4971;SDS011;2501;51.214;6.768;2023-03-01T06:31:05;20.80;;;10.43;;
4971;SDS011;2501;51.214;6.768;2023-03-01T06:33:34;17.67;;;11.43;;
4971;SDS011;2501;51.214;6.768;2023-03-01T06:36:04;16.27;;;10.30;;
4971;SDS011;2501;51.214;6.768;2023-03-01T06:38:33;17.63;;;10.93;;
4971;SDS011;2501;51.214;6.768;2023-03-01T06:41:01;17.25;;;11.25;;
4971;SDS011;2501;51.214;6.768;2023-03-01T06:43:30;25.73;;;11.20;;
4971;SDS011;2501;51.214;6.768;2023-03-01T06:45:58;19.45;;;11.10;;
4971;SDS011;2501;51.214;6.768;2023-03-01T06:48:29;16.27;;;11.00;;
4971;SDS011;2501;51.214;6.768;2023-03-01T06:50:58;20.90;;;10.80;;
4971;SDS011;2501;51.214;6.768;2023-03-01T06:53:27;19.75;;;11.60;;
4971;SDS011;2501;51.214;6.768;2023-03-01T06:55:56;17.67;;;11.43;;
4971;SDS011;2501;51.214;6.768;2023-03-01T06:58:25;22.85;;;12.15;;
4971;SDS011;2501;51.214;6.768;2023-03-01T07:00:53;17.87;;;12.03;;
4971;SDS011;2501;51.214;6.768;2023-03-01T07:03:22;18.48;;;10.88;;
4971;SDS011;2501;51.214;6.768;2023-03-01T07:05:53;18.48;;;11.35;;
4971;SDS011;2501;51.214;6.768;2023-03-01T07:08:21;19.30;;;11.55;;
4971;SDS011;2501;51.214;6.768;2023-03-01T07:10:54;15.95;;;10.77;;
4971;SDS011;2501;51.214;6.768;2023-03-01T07:13:23;19.13;;;11.20;;
4971;SDS011;2501;51.214;6.768;2023-03-01T07:15:52;17.02;;;11.57;;
4971;SDS011;2501;51.214;6.768;2023-03-01T07:18:20;16.73;;;11.57;;
4971;SDS011;2501;51.214;6.768;2023-03-01T07:20:49;17.98;;;11.57;;
4971;SDS011;2501;51.214;6.768;2023-03-01T07:23:20;16.38;;;11.00;;
4971;SDS011;2501;51.214;6.768;2023-03-01T07:25:51;17.13;;;11.60;;
4971;SDS011;2501;51.214;6.768;2023-03-01T07:28:22;19.63;;;11.77;;
4971;SDS011;2501;51.214;6.768;2023-03-01T07:30:50;24.33;;;12.15;;
4971;SDS011;2501;51.214;6.768;2023-03-01T07:33:19;31.05;;;11.80;;
4971;SDS011;2501;51.214;6.768;2023-03-01T07:35:55;24.47;;;12.50;;
4971;SDS011;2501;51.214;6.768;2023-03-01T07:38:26;18.00;;;10.95;;
4971;SDS011;2501;51.214;6.768;2023-03-01T07:40:57;16.85;;;11.15;;
4971;SDS011;2501;51.214;6.768;2023-03-01T07:43:27;17.75;;;11.00;;
4971;SDS011;2501;51.214;6.768;2023-03-01T07:45:57;23.02;;;13.98;;
4971;SDS011;2501;51.214;6.768;2023-03-01T07:48:26;23.73;;;12.50;;
4971;SDS011;2501;51.214;6.768;2023-03-01T07:50:57;15.27;;;10.03;;
4971;SDS011;2501;51.214;6.768;2023-03-01T07:53:28;15.45;;;11.48;;
4971;SDS011;2501;51.214;6.768;2023-03-01T07:56:02;21.60;;;11.52;;
4971;SDS011;2501;51.214;6.768;2023-03-01T07:58:33;22.95;;;11.35;;
4971;SDS011;2501;51.214;6.768;2023-03-01T08:01:02;15.95;;;11.20;;
4971;SDS011;2501;51.214;6.768;2023-03-01T08:03:32;22.08;;;12.20;;
4971;SDS011;2501;51.214;6.768;2023-03-01T08:06:00;21.65;;;11.50;;
4971;SDS011;2501;51.214;6.768;2023-03-01T08:08:32;18.55;;;12.05;;
4971;SDS011;2501;51.214;6.768;2023-03-01T08:11:02;19.25;;;11.52;;
4971;SDS011;2501;51.214;6.768;2023-03-01T08:13:32;19.63;;;11.63;;
4971;SDS011;2501;51.214;6.768;2023-03-01T08:16:01;16.50;;;11.13;;
4971;SDS011;2501;51.214;6.768;2023-03-01T08:18:30;21.02;;;10.95;;
4971;SDS011;2501;51.214;6.768;2023-03-01T08:21:01;20.98;;;12.10;;
4971;SDS011;2501;51.214;6.768;2023-03-01T08:23:33;19.40;;;12.48;;
4971;SDS011;2501;51.214;6.768;2023-03-01T08:26:05;19.23;;;11.68;;
4971;SDS011;2501;51.214;6.768;2023-03-01T08:28:35;17.33;;;11.30;;
4971;SDS011;2501;51.214;6.768;2023-03-01T08:31:12;19.25;;;11.80;;
4971;SDS011;2501;51.214;6.768;2023-03-01T08:33:42;18.45;;;13.10;;
4971;SDS011;2501;51.214;6.768;2023-03-01T08:36:15;16.52;;;11.57;;
4971;SDS011;2501;51.214;6.768;2023-03-01T08:38:48;18.90;;;11.50;;
4971;SDS011;2501;51.214;6.768;2023-03-01T08:41:17;20.67;;;11.98;;
4971;SDS011;2501;51.214;6.768;2023-03-01T08:43:46;24.63;;;11.40;;
4971;SDS011;2501;51.214;6.768;2023-03-01T08:46:14;20.17;;;12.10;;
4971;SDS011;2501;51.214;6.768;2023-03-01T08:48:43;20.67;;;12.05;;
4971;SDS011;2501;51.214;6.768;2023-03-01T08:51:12;16.55;;;10.82;;
4971;SDS011;2501;51.214;6.768;2023-03-01T08:53:42;20.00;;;12.18;;
4971;SDS011;2501;51.214;6.768;2023-03-01T08:56:14;20.38;;;12.52;;
4971;SDS011;2501;51.214;6.768;2023-03-01T08:58:43;20.20;;;11.63;;
4971;SDS011;2501;51.214;6.768;2023-03-01T09:01:13;19.95;;;12.40;;
4971;SDS011;2501;51.214;6.768;2023-03-01T09:03:43;16.27;;;10.90;;
4971;SDS011;2501;51.214;6.768;2023-03-01T09:06:12;17.23;;;10.88;;
4971;SDS011;2501;51.214;6.768;2023-03-01T09:08:42;17.25;;;10.63;;
4971;SDS011;2501;51.214;6.768;2023-03-01T09:11:14;17.77;;;11.00;;
4971;SDS011;2501;51.214;6.768;2023-03-01T09:13:45;19.92;;;12.23;;
4971;SDS011;2501;51.214;6.768;2023-03-01T09:16:14;18.30;;;10.90;;
4971;SDS011;2501;51.214;6.768;2023-03-01T09:18:48;22.75;;;11.43;;
4971;SDS011;2501;51.214;6.768;2023-03-01T09:21:18;16.20;;;10.75;;
4971;SDS011;2501;51.214;6.768;2023-03-01T09:23:48;15.02;;;10.90;;
4971;SDS011;2501;51.214;6.768;2023-03-01T09:26:20;18.35;;;10.80;;
4971;SDS011;2501;51.214;6.768;2023-03-01T09:28:50;19.05;;;11.52;;
4971;SDS011;2501;51.214;6.768;2023-03-01T09:31:21;16.15;;;10.90;;
4971;SDS011;2501;51.214;6.768;2023-03-01T09:33:52;17.13;;;10.43;;
4971;SDS011;2501;51.214;6.768;2023-03-01T09:36:22;19.55;;;10.98;;
4971;SDS011;2501;51.214;6.768;2023-03-01T09:38:51;16.00;;;11.18;;
4971;SDS011;2501;51.214;6.768;2023-03-01T09:41:30;19.38;;;10.80;;
4971;SDS011;2501;51.214;6.768;2023-03-01T09:44:20;16.17;;;10.25;;
4971;SDS011;2501;51.214;6.768;2023-03-01T09:46:53;15.40;;;10.80;;
4971;SDS011;2501;51.214;6.768;2023-03-01T09:49:24;14.27;;;9.95;;
4971;SDS011;2501;51.214;6.768;2023-03-01T09:51:57;15.90;;;11.02;;
4971;SDS011;2501;51.214;6.768;2023-03-01T09:54:27;21.58;;;11.80;;
4971;SDS011;2501;51.214;6.768;2023-03-01T09:57:01;21.40;;;11.90;;
4971;SDS011;2501;51.214;6.768;2023-03-01T09:59:48;17.92;;;10.40;;
4971;SDS011;2501;51.214;6.768;2023-03-01T10:02:30;16.80;;;11.25;;
4971;SDS011;2501;51.214;6.768;2023-03-01T10:05:11;15.10;;;10.93;;
4971;SDS011;2501;51.214;6.768;2023-03-01T10:07:51;17.25;;;11.35;;
4971;SDS011;2501;51.214;6.768;2023-03-01T10:10:32;21.08;;;10.77;;
4971;SDS011;2501;51.214;6.768;2023-03-01T10:13:07;16.00;;;10.98;;
4971;SDS011;2501;51.214;6.768;2023-03-01T10:15:44;19.40;;;11.02;;
4971;SDS011;2501;51.214;6.768;2023-03-01T10:18:21;16.13;;;10.43;;
4971;SDS011;2501;51.214;6.768;2023-03-01T10:20:53;17.42;;;10.23;;
4971;SDS011;2501;51.214;6.768;2023-03-01T10:23:27;33.72;;;12.13;;
4971;SDS011;2501;51.214;6.768;2023-03-01T10:26:09;24.80;;;10.30;;
4971;SDS011;2501;51.214;6.768;2023-03-01T10:28:50;15.35;;;11.50;;
4971;SDS011;2501;51.214;6.768;2023-03-01T10:31:29;14.60;;;11.05;;
4971;SDS011;2501;51.214;6.768;2023-03-01T10:34:09;14.90;;;10.88;;
4971;SDS011;2501;51.214;6.768;2023-03-01T10:36:40;16.63;;;10.63;;
4971;SDS011;2501;51.214;6.768;2023-03-01T10:39:14;17.45;;;11.20;;
4971;SDS011;2501;51.214;6.768;2023-03-01T10:41:51;18.33;;;11.25;;
4971;SDS011;2501;51.214;6.768;2023-03-01T10:44:37;22.20;;;11.40;;
4971;SDS011;2501;51.214;6.768;2023-03-01T10:47:15;14.63;;;10.75;;
4971;SDS011;2501;51.214;6.768;2023-03-01T10:49:52;19.17;;;11.48;;
4971;SDS011;2501;51.214;6.768;2023-03-01T10:52:24;19.37;;;11.83;;
4971;SDS011;2501;51.214;6.768;2023-03-01T10:54:55;22.13;;;12.55;;
4971;SDS011;2501;51.214;6.768;2023-03-01T10:57:33;17.00;;;11.30;;
4971;SDS011;2501;51.214;6.768;2023-03-01T11:00:21;17.83;;;12.50;;
4971;SDS011;2501;51.214;6.768;2023-03-01T11:03:03;17.45;;;11.73;;
4971;SDS011;2501;51.214;6.768;2023-03-01T11:05:56;21.05;;;12.32;;
4971;SDS011;2501;51.214;6.768;2023-03-01T11:08:33;18.98;;;12.20;;
4971;SDS011;2501;51.214;6.768;2023-03-01T11:11:26;19.10;;;12.30;;
4971;SDS011;2501;51.214;6.768;2023-03-01T11:13:59;20.02;;;11.75;;
4971;SDS011;2501;51.214;6.768;2023-03-01T11:16:34;16.83;;;11.73;;
4971;SDS011;2501;51.214;6.768;2023-03-01T11:19:14;22.08;;;12.48;;
4971;SDS011;2501;51.214;6.768;2023-03-01T11:21:52;15.95;;;11.52;;
4971;SDS011;2501;51.214;6.768;2023-03-01T11:24:26;19.47;;;11.70;;
4971;SDS011;2501;51.214;6.768;2023-03-01T11:26:59;19.67;;;12.05;;
4971;SDS011;2501;51.214;6.768;2023-03-01T11:29:33;16.50;;;11.70;;
4971;SDS011;2501;51.214;6.768;2023-03-01T11:32:10;19.98;;;12.18;;
4971;SDS011;2501;51.214;6.768;2023-03-01T11:34:42;19.95;;;12.75;;
4971;SDS011;2501;51.214;6.768;2023-03-01T11:37:19;18.50;;;12.40;;
4971;SDS011;2501;51.214;6.768;2023-03-01T11:39:56;17.25;;;11.82;;
4971;SDS011;2501;51.214;6.768;2023-03-01T11:42:34;16.38;;;11.50;;
4971;SDS011;2501;51.214;6.768;2023-03-01T11:45:11;21.67;;;12.60;;
4971;SDS011;2501;51.214;6.768;2023-03-01T11:47:47;32.43;;;11.80;;
4971;SDS011;2501;51.214;6.768;2023-03-01T11:50:33;20.80;;;11.65;;
4971;SDS011;2501;51.214;6.768;2023-03-01T11:53:13;18.98;;;11.40;;
4971;SDS011;2501;51.214;6.768;2023-03-01T11:56:01;16.60;;;10.93;;
4971;SDS011;2501;51.214;6.768;2023-03-01T11:58:41;17.85;;;10.82;;
4971;SDS011;2501;51.214;6.768;2023-03-01T12:01:24;17.73;;;10.70;;
4971;SDS011;2501;51.214;6.768;2023-03-01T12:04:22;18.03;;;10.40;;
4971;SDS011;2501;51.214;6.768;2023-03-01T12:07:05;19.90;;;10.98;;
4971;SDS011;2501;51.214;6.768;2023-03-01T12:09:44;22.13;;;10.90;;
4971;SDS011;2501;51.214;6.768;2023-03-01T12:12:26;23.58;;;10.85;;
4971;SDS011;2501;51.214;6.768;2023-03-01T12:15:15;17.85;;;11.13;;
4971;SDS011;2501;51.214;6.768;2023-03-01T12:21:07;17.15;;;10.35;;
4971;SDS011;2501;51.214;6.768;2023-03-01T12:24:04;16.35;;;10.60;;
4971;SDS011;2501;51.214;6.768;2023-03-01T12:26:46;19.55;;;10.45;;
4971;SDS011;2501;51.214;6.768;2023-03-01T12:29:25;20.42;;;10.80;;
4971;SDS011;2501;51.214;6.768;2023-03-01T12:35:09;30.05;;;10.00;;
4971;SDS011;2501;51.214;6.768;2023-03-01T12:37:56;14.73;;;9.93;;
4971;SDS011;2501;51.214;6.768;2023-03-01T12:43:45;16.15;;;9.25;;
4971;SDS011;2501;51.214;6.768;2023-03-01T12:46:28;19.38;;;9.75;;
4971;SDS011;2501;51.214;6.768;2023-03-01T12:49:09;15.37;;;8.90;;
4971;SDS011;2501;51.214;6.768;2023-03-01T12:51:42;20.58;;;9.57;;
4971;SDS011;2501;51.214;6.768;2023-03-01T12:54:22;16.87;;;9.23;;
4971;SDS011;2501;51.214;6.768;2023-03-01T12:56:55;14.50;;;8.70;;
4971;SDS011;2501;51.214;6.768;2023-03-01T12:59:26;17.05;;;9.05;;
4971;SDS011;2501;51.214;6.768;2023-03-01T13:02:04;18.50;;;8.90;;
4971;SDS011;2501;51.214;6.768;2023-03-01T13:04:47;16.58;;;8.48;;
4971;SDS011;2501;51.214;6.768;2023-03-01T13:07:29;14.13;;;8.90;;
4971;SDS011;2501;51.214;6.768;2023-03-01T13:10:14;12.77;;;8.57;;
4971;SDS011;2501;51.214;6.768;2023-03-01T13:13:00;15.55;;;9.02;;
4971;SDS011;2501;51.214;6.768;2023-03-01T13:15:32;16.00;;;9.20;;
4971;SDS011;2501;51.214;6.768;2023-03-01T13:18:03;14.70;;;9.05;;
4971;SDS011;2501;51.214;6.768;2023-03-01T13:20:53;13.18;;;8.35;;
4971;SDS011;2501;51.214;6.768;2023-03-01T13:23:24;15.63;;;8.40;;
4971;SDS011;2501;51.214;6.768;2023-03-01T13:26:09;12.27;;;8.93;;
4971;SDS011;2501;51.214;6.768;2023-03-01T13:37:27;11.07;;;7.90;;
4971;SDS011;2501;51.214;6.768;2023-03-01T13:39:58;16.27;;;8.60;;
4971;SDS011;2501;51.214;6.768;2023-03-01T13:42:35;11.73;;;7.63;;
4971;SDS011;2501;51.214;6.768;2023-03-01T13:45:17;10.75;;;8.43;;
4971;SDS011;2501;51.214;6.768;2023-03-01T13:47:50;10.55;;;7.90;;
4971;SDS011;2501;51.214;6.768;2023-03-01T13:50:24;20.15;;;9.70;;
4971;SDS011;2501;51.214;6.768;2023-03-01T13:52:56;11.43;;;8.15;;
4971;SDS011;2501;51.214;6.768;2023-03-01T13:55:32;15.70;;;9.10;;
4971;SDS011;2501;51.214;6.768;2023-03-01T13:58:14;14.52;;;8.10;;
4971;SDS011;2501;51.214;6.768;2023-03-01T14:00:46;12.90;;;8.40;;
4971;SDS011;2501;51.214;6.768;2023-03-01T14:03:15;12.83;;;8.53;;
4971;SDS011;2501;51.214;6.768;2023-03-01T14:05:57;14.43;;;8.97;;
4971;SDS011;2501;51.214;6.768;2023-03-01T14:08:28;11.70;;;7.60;;
4971;SDS011;2501;51.214;6.768;2023-03-01T14:14:13;18.80;;;7.90;;
4971;SDS011;2501;51.214;6.768;2023-03-01T14:17:00;12.15;;;8.27;;
4971;SDS011;2501;51.214;6.768;2023-03-01T14:19:37;14.90;;;8.32;;
4971;SDS011;2501;51.214;6.768;2023-03-01T14:22:11;15.38;;;8.10;;
4971;SDS011;2501;51.214;6.768;2023-03-01T14:24:45;11.50;;;8.05;;
4971;SDS011;2501;51.214;6.768;2023-03-01T14:27:17;12.77;;;8.02;;
4971;SDS011;2501;51.214;6.768;2023-03-01T14:29:56;14.93;;;8.55;;
4971;SDS011;2501;51.214;6.768;2023-03-01T14:32:27;14.60;;;9.57;;
4971;SDS011;2501;51.214;6.768;2023-03-01T14:34:58;12.77;;;9.05;;
4971;SDS011;2501;51.214;6.768;2023-03-01T14:37:28;14.60;;;8.68;;
4971;SDS011;2501;51.214;6.768;2023-03-01T14:39:58;13.85;;;9.32;;
4971;SDS011;2501;51.214;6.768;2023-03-01T14:42:31;14.30;;;8.60;;
4971;SDS011;2501;51.214;6.768;2023-03-01T14:45:07;15.80;;;8.68;;
4971;SDS011;2501;51.214;6.768;2023-03-01T14:47:39;13.93;;;8.32;;
4971;SDS011;2501;51.214;6.768;2023-03-01T14:50:09;12.32;;;8.60;;
4971;SDS011;2501;51.214;6.768;2023-03-01T14:52:45;14.18;;;8.10;;
4971;SDS011;2501;51.214;6.768;2023-03-01T14:55:17;14.77;;;9.15;;
4971;SDS011;2501;51.214;6.768;2023-03-01T14:57:48;12.75;;;8.93;;
4971;SDS011;2501;51.214;6.768;2023-03-01T15:00:22;13.07;;;8.48;;
4971;SDS011;2501;51.214;6.768;2023-03-01T15:02:54;13.00;;;7.45;;
4971;SDS011;2501;51.214;6.768;2023-03-01T15:05:25;15.38;;;8.25;;
4971;SDS011;2501;51.214;6.768;2023-03-01T15:07:57;13.43;;;8.25;;
4971;SDS011;2501;51.214;6.768;2023-03-01T15:10:27;13.40;;;8.40;;
4971;SDS011;2501;51.214;6.768;2023-03-01T15:13:09;9.82;;;7.53;;
4971;SDS011;2501;51.214;6.768;2023-03-01T15:15:41;16.33;;;8.68;;
4971;SDS011;2501;51.214;6.768;2023-03-01T15:18:13;11.38;;;7.63;;
4971;SDS011;2501;51.214;6.768;2023-03-01T15:20:45;12.32;;;7.90;;
4971;SDS011;2501;51.214;6.768;2023-03-01T15:23:17;12.32;;;8.10;;
4971;SDS011;2501;51.214;6.768;2023-03-01T15:25:49;12.82;;;7.60;;
4971;SDS011;2501;51.214;6.768;2023-03-01T15:28:24;12.40;;;7.33;;
4971;SDS011;2501;51.214;6.768;2023-03-01T15:30:58;17.13;;;8.20;;
4971;SDS011;2501;51.214;6.768;2023-03-01T15:33:35;12.20;;;8.20;;
4971;SDS011;2501;51.214;6.768;2023-03-01T15:39:00;11.00;;;8.10;;
4971;SDS011;2501;51.214;6.768;2023-03-01T15:41:31;13.15;;;7.60;;
4971;SDS011;2501;51.214;6.768;2023-03-01T15:44:14;10.20;;;7.13;;
4971;SDS011;2501;51.214;6.768;2023-03-01T15:46:47;11.03;;;7.73;;
4971;SDS011;2501;51.214;6.768;2023-03-01T15:49:23;11.02;;;7.15;;
4971;SDS011;2501;51.214;6.768;2023-03-01T15:51:58;12.48;;;7.45;;
4971;SDS011;2501;51.214;6.768;2023-03-01T15:54:27;13.30;;;7.70;;